Yardley, Pennsylvania
Current Conditions -  °F | °C
As of 1:53 PM on Thursday 27 Nov 2014 (Local Time) from KTTN Reporting Station
Overcast Overcast  
Wind Chill: 30°   Ceiling: 2000
Heat Index: 36°   Visibility: 10mi
Dew Point: 29°   Wind: 7mph
Humidity: 76%   Direction: 300°WNW
Pressure: 30"   Gusts: NA
Location:  40.1994°N, 74.8145°W
Report Text: KTTN 271853Z 30006KT 10SM OVC020 02/M02 A3000 RMK AO2 SLP155 T00221017
Loading
Personal Weather Stations






























Interactive Weather Map New forecast layout! Learn more

10-Day Weather Forecast

Advertisements
Track Severe Weather on mobile